sensor_id;sensor_type;location;lat;lon;timestamp;P1;durP1;ratioP1;P2;durP2;ratioP2
14348;SDS011;7258;50.376;8.742;2023-03-07T00:01:34;25.77;;;18.30;;
14348;SDS011;7258;50.376;8.742;2023-03-07T00:03:37;23.50;;;17.83;;
14348;SDS011;7258;50.376;8.742;2023-03-07T00:05:40;27.20;;;18.67;;
14348;SDS011;7258;50.376;8.742;2023-03-07T00:07:44;27.50;;;19.37;;
14348;SDS011;7258;50.376;8.742;2023-03-07T00:09:47;23.97;;;18.33;;
14348;SDS011;7258;50.376;8.742;2023-03-07T00:11:50;27.03;;;19.70;;
14348;SDS011;7258;50.376;8.742;2023-03-07T00:13:53;28.83;;;19.43;;
14348;SDS011;7258;50.376;8.742;2023-03-07T00:16:00;27.97;;;19.93;;
14348;SDS011;7258;50.376;8.742;2023-03-07T00:18:03;28.07;;;18.97;;
14348;SDS011;7258;50.376;8.742;2023-03-07T00:20:06;28.20;;;19.50;;
14348;SDS011;7258;50.376;8.742;2023-03-07T00:22:11;26.60;;;19.50;;
14348;SDS011;7258;50.376;8.742;2023-03-07T00:24:16;26.10;;;19.00;;
14348;SDS011;7258;50.376;8.742;2023-03-07T00:26:20;28.03;;;18.87;;
14348;SDS011;7258;50.376;8.742;2023-03-07T00:28:24;25.37;;;19.33;;
14348;SDS011;7258;50.376;8.742;2023-03-07T00:30:27;25.33;;;19.53;;
14348;SDS011;7258;50.376;8.742;2023-03-07T00:32:30;30.80;;;19.77;;
14348;SDS011;7258;50.376;8.742;2023-03-07T00:34:33;26.77;;;19.50;;
14348;SDS011;7258;50.376;8.742;2023-03-07T00:36:36;27.13;;;19.43;;
14348;SDS011;7258;50.376;8.742;2023-03-07T00:38:39;29.40;;;20.80;;
14348;SDS011;7258;50.376;8.742;2023-03-07T00:40:44;29.30;;;20.93;;
14348;SDS011;7258;50.376;8.742;2023-03-07T00:42:47;28.60;;;19.63;;
14348;SDS011;7258;50.376;8.742;2023-03-07T00:44:49;27.67;;;21.00;;
14348;SDS011;7258;50.376;8.742;2023-03-07T00:46:52;28.27;;;20.57;;
14348;SDS011;7258;50.376;8.742;2023-03-07T00:48:55;28.43;;;21.60;;
14348;SDS011;7258;50.376;8.742;2023-03-07T00:50:58;29.90;;;21.23;;
14348;SDS011;7258;50.376;8.742;2023-03-07T00:53:01;31.73;;;22.03;;
14348;SDS011;7258;50.376;8.742;2023-03-07T00:55:04;31.27;;;21.87;;
14348;SDS011;7258;50.376;8.742;2023-03-07T00:57:09;30.17;;;22.13;;
14348;SDS011;7258;50.376;8.742;2023-03-07T00:59:12;29.30;;;21.43;;
14348;SDS011;7258;50.376;8.742;2023-03-07T01:01:17;32.17;;;22.43;;
14348;SDS011;7258;50.376;8.742;2023-03-07T01:03:23;32.83;;;23.43;;
14348;SDS011;7258;50.376;8.742;2023-03-07T01:05:27;30.20;;;21.53;;
14348;SDS011;7258;50.376;8.742;2023-03-07T01:07:30;28.87;;;21.97;;
14348;SDS011;7258;50.376;8.742;2023-03-07T01:09:33;31.10;;;23.27;;
14348;SDS011;7258;50.376;8.742;2023-03-07T01:11:36;31.17;;;22.87;;
14348;SDS011;7258;50.376;8.742;2023-03-07T01:13:40;32.03;;;22.97;;
14348;SDS011;7258;50.376;8.742;2023-03-07T01:15:43;30.97;;;22.47;;
14348;SDS011;7258;50.376;8.742;2023-03-07T01:17:46;32.33;;;22.27;;
14348;SDS011;7258;50.376;8.742;2023-03-07T01:19:49;34.20;;;23.57;;
14348;SDS011;7258;50.376;8.742;2023-03-07T01:21:52;32.97;;;23.53;;
14348;SDS011;7258;50.376;8.742;2023-03-07T01:23:55;32.30;;;22.73;;
14348;SDS011;7258;50.376;8.742;2023-03-07T01:25:58;32.77;;;23.87;;
14348;SDS011;7258;50.376;8.742;2023-03-07T01:28:01;33.87;;;23.73;;
14348;SDS011;7258;50.376;8.742;2023-03-07T01:30:08;32.30;;;23.77;;
14348;SDS011;7258;50.376;8.742;2023-03-07T01:32:12;32.47;;;23.73;;
14348;SDS011;7258;50.376;8.742;2023-03-07T01:34:15;32.70;;;23.17;;
14348;SDS011;7258;50.376;8.742;2023-03-07T01:36:18;33.40;;;23.90;;
14348;SDS011;7258;50.376;8.742;2023-03-07T01:38:25;34.33;;;24.67;;
14348;SDS011;7258;50.376;8.742;2023-03-07T01:40:29;36.13;;;24.83;;
14348;SDS011;7258;50.376;8.742;2023-03-07T01:42:31;32.90;;;24.90;;
14348;SDS011;7258;50.376;8.742;2023-03-07T01:44:56;35.23;;;24.63;;
14348;SDS011;7258;50.376;8.742;2023-03-07T01:47:04;35.07;;;25.23;;
14348;SDS011;7258;50.376;8.742;2023-03-07T01:49:07;34.57;;;25.20;;
14348;SDS011;7258;50.376;8.742;2023-03-07T01:51:14;36.43;;;26.17;;
14348;SDS011;7258;50.376;8.742;2023-03-07T01:53:17;39.70;;;26.67;;
14348;SDS011;7258;50.376;8.742;2023-03-07T01:55:20;34.40;;;25.50;;
14348;SDS011;7258;50.376;8.742;2023-03-07T01:57:27;37.67;;;25.80;;
14348;SDS011;7258;50.376;8.742;2023-03-07T01:59:34;39.47;;;26.97;;
14348;SDS011;7258;50.376;8.742;2023-03-07T02:01:42;38.70;;;27.57;;
14348;SDS011;7258;50.376;8.742;2023-03-07T02:03:47;39.70;;;27.20;;
14348;SDS011;7258;50.376;8.742;2023-03-07T02:05:54;42.37;;;28.10;;
14348;SDS011;7258;50.376;8.742;2023-03-07T02:07:59;43.07;;;29.23;;
14348;SDS011;7258;50.376;8.742;2023-03-07T02:10:04;42.40;;;29.20;;
14348;SDS011;7258;50.376;8.742;2023-03-07T02:12:08;43.97;;;30.63;;
14348;SDS011;7258;50.376;8.742;2023-03-07T02:14:12;44.67;;;30.23;;
14348;SDS011;7258;50.376;8.742;2023-03-07T02:16:14;41.23;;;28.67;;
14348;SDS011;7258;50.376;8.742;2023-03-07T02:18:19;44.97;;;30.07;;
14348;SDS011;7258;50.376;8.742;2023-03-07T02:20:29;43.97;;;30.47;;
14348;SDS011;7258;50.376;8.742;2023-03-07T02:22:40;43.37;;;28.87;;
14348;SDS011;7258;50.376;8.742;2023-03-07T02:24:44;43.07;;;29.57;;
14348;SDS011;7258;50.376;8.742;2023-03-07T02:26:54;44.90;;;29.07;;
14348;SDS011;7258;50.376;8.742;2023-03-07T02:28:58;42.00;;;30.33;;
14348;SDS011;7258;50.376;8.742;2023-03-07T02:31:03;43.10;;;29.57;;
14348;SDS011;7258;50.376;8.742;2023-03-07T02:33:08;43.50;;;29.77;;
14348;SDS011;7258;50.376;8.742;2023-03-07T02:35:12;43.00;;;30.40;;
14348;SDS011;7258;50.376;8.742;2023-03-07T02:37:17;47.67;;;31.90;;
14348;SDS011;7258;50.376;8.742;2023-03-07T02:39:22;48.10;;;31.57;;
14348;SDS011;7258;50.376;8.742;2023-03-07T02:41:31;45.37;;;31.07;;
14348;SDS011;7258;50.376;8.742;2023-03-07T02:43:36;45.47;;;31.30;;
14348;SDS011;7258;50.376;8.742;2023-03-07T02:45:40;52.10;;;33.23;;
14348;SDS011;7258;50.376;8.742;2023-03-07T02:47:42;53.47;;;34.40;;
14348;SDS011;7258;50.376;8.742;2023-03-07T02:49:46;51.23;;;33.23;;
14348;SDS011;7258;50.376;8.742;2023-03-07T02:51:49;61.13;;;35.60;;
14348;SDS011;7258;50.376;8.742;2023-03-07T02:53:57;60.33;;;35.90;;
14348;SDS011;7258;50.376;8.742;2023-03-07T02:56:00;58.20;;;36.90;;
14348;SDS011;7258;50.376;8.742;2023-03-07T02:58:04;61.87;;;36.77;;
14348;SDS011;7258;50.376;8.742;2023-03-07T03:00:09;63.60;;;38.23;;
14348;SDS011;7258;50.376;8.742;2023-03-07T03:02:13;75.67;;;40.43;;
14348;SDS011;7258;50.376;8.742;2023-03-07T03:04:16;80.63;;;40.03;;
14348;SDS011;7258;50.376;8.742;2023-03-07T03:06:19;78.40;;;41.07;;
14348;SDS011;7258;50.376;8.742;2023-03-07T03:08:22;90.90;;;42.30;;
14348;SDS011;7258;50.376;8.742;2023-03-07T03:10:25;93.23;;;43.00;;
14348;SDS011;7258;50.376;8.742;2023-03-07T03:12:28;97.37;;;43.73;;
14348;SDS011;7258;50.376;8.742;2023-03-07T03:14:31;94.03;;;43.10;;
14348;SDS011;7258;50.376;8.742;2023-03-07T03:16:35;112.23;;;44.00;;
14348;SDS011;7258;50.376;8.742;2023-03-07T03:18:39;109.80;;;45.00;;
14348;SDS011;7258;50.376;8.742;2023-03-07T03:20:42;125.03;;;46.37;;
14348;SDS011;7258;50.376;8.742;2023-03-07T03:22:45;111.90;;;43.97;;
14348;SDS011;7258;50.376;8.742;2023-03-07T03:24:48;113.67;;;46.13;;
14348;SDS011;7258;50.376;8.742;2023-03-07T03:26:53;134.30;;;47.07;;
14348;SDS011;7258;50.376;8.742;2023-03-07T03:28:57;103.63;;;43.63;;
14348;SDS011;7258;50.376;8.742;2023-03-07T03:31:01;116.33;;;44.23;;
14348;SDS011;7258;50.376;8.742;2023-03-07T03:33:08;129.20;;;45.07;;
14348;SDS011;7258;50.376;8.742;2023-03-07T03:35:11;136.17;;;45.97;;
14348;SDS011;7258;50.376;8.742;2023-03-07T03:37:14;127.27;;;45.57;;
14348;SDS011;7258;50.376;8.742;2023-03-07T03:39:18;139.60;;;47.40;;
14348;SDS011;7258;50.376;8.742;2023-03-07T03:41:21;117.40;;;45.33;;
14348;SDS011;7258;50.376;8.742;2023-03-07T03:43:24;131.43;;;44.93;;
14348;SDS011;7258;50.376;8.742;2023-03-07T03:45:27;127.63;;;45.63;;
14348;SDS011;7258;50.376;8.742;2023-03-07T03:47:30;133.37;;;47.37;;
14348;SDS011;7258;50.376;8.742;2023-03-07T03:49:34;143.57;;;45.57;;
14348;SDS011;7258;50.376;8.742;2023-03-07T03:51:37;132.33;;;45.30;;
14348;SDS011;7258;50.376;8.742;2023-03-07T03:53:40;126.50;;;44.30;;
14348;SDS011;7258;50.376;8.742;2023-03-07T03:55:43;140.67;;;45.23;;
14348;SDS011;7258;50.376;8.742;2023-03-07T03:57:46;137.97;;;47.40;;
14348;SDS011;7258;50.376;8.742;2023-03-07T03:59:49;123.03;;;43.70;;
14348;SDS011;7258;50.376;8.742;2023-03-07T04:01:52;138.00;;;46.80;;
14348;SDS011;7258;50.376;8.742;2023-03-07T04:03:56;143.03;;;45.77;;
14348;SDS011;7258;50.376;8.742;2023-03-07T04:06:01;131.80;;;45.97;;
14348;SDS011;7258;50.376;8.742;2023-03-07T04:08:06;134.83;;;45.40;;
14348;SDS011;7258;50.376;8.742;2023-03-07T04:10:10;139.83;;;44.20;;
14348;SDS011;7258;50.376;8.742;2023-03-07T04:12:13;133.90;;;44.97;;
14348;SDS011;7258;50.376;8.742;2023-03-07T04:14:16;138.20;;;46.80;;
14348;SDS011;7258;50.376;8.742;2023-03-07T04:16:19;131.40;;;43.53;;
14348;SDS011;7258;50.376;8.742;2023-03-07T04:18:23;138.73;;;45.03;;
14348;SDS011;7258;50.376;8.742;2023-03-07T04:20:26;128.73;;;44.23;;
14348;SDS011;7258;50.376;8.742;2023-03-07T04:22:31;115.80;;;42.50;;
14348;SDS011;7258;50.376;8.742;2023-03-07T04:24:34;132.17;;;43.23;;
14348;SDS011;7258;50.376;8.742;2023-03-07T04:26:36;134.37;;;42.43;;
14348;SDS011;7258;50.376;8.742;2023-03-07T04:28:40;136.37;;;43.00;;
14348;SDS011;7258;50.376;8.742;2023-03-07T04:30:45;132.93;;;43.30;;
14348;SDS011;7258;50.376;8.742;2023-03-07T04:32:50;110.77;;;41.30;;
14348;SDS011;7258;50.376;8.742;2023-03-07T04:34:53;112.50;;;39.73;;
14348;SDS011;7258;50.376;8.742;2023-03-07T04:36:56;117.67;;;40.73;;
14348;SDS011;7258;50.376;8.742;2023-03-07T04:39:00;136.27;;;41.70;;
14348;SDS011;7258;50.376;8.742;2023-03-07T04:41:03;118.07;;;40.70;;
14348;SDS011;7258;50.376;8.742;2023-03-07T04:43:07;122.23;;;40.57;;
14348;SDS011;7258;50.376;8.742;2023-03-07T04:45:10;108.43;;;39.40;;
14348;SDS011;7258;50.376;8.742;2023-03-07T04:47:13;108.63;;;39.40;;
14348;SDS011;7258;50.376;8.742;2023-03-07T04:49:16;123.47;;;39.77;;
14348;SDS011;7258;50.376;8.742;2023-03-07T04:51:18;127.07;;;41.70;;
14348;SDS011;7258;50.376;8.742;2023-03-07T04:53:22;120.60;;;40.20;;
14348;SDS011;7258;50.376;8.742;2023-03-07T04:55:26;94.50;;;36.73;;
14348;SDS011;7258;50.376;8.742;2023-03-07T04:57:29;110.47;;;38.80;;
14348;SDS011;7258;50.376;8.742;2023-03-07T04:59:32;120.57;;;39.50;;
14348;SDS011;7258;50.376;8.742;2023-03-07T05:01:39;116.23;;;39.57;;
14348;SDS011;7258;50.376;8.742;2023-03-07T05:03:42;96.10;;;37.00;;
14348;SDS011;7258;50.376;8.742;2023-03-07T05:05:45;126.73;;;38.30;;
14348;SDS011;7258;50.376;8.742;2023-03-07T05:07:48;110.63;;;38.23;;
14348;SDS011;7258;50.376;8.742;2023-03-07T05:09:51;119.30;;;39.67;;
14348;SDS011;7258;50.376;8.742;2023-03-07T05:11:55;106.57;;;38.83;;
14348;SDS011;7258;50.376;8.742;2023-03-07T05:13:58;117.73;;;36.77;;
14348;SDS011;7258;50.376;8.742;2023-03-07T05:16:01;130.13;;;39.83;;
14348;SDS011;7258;50.376;8.742;2023-03-07T05:18:04;124.67;;;38.97;;
14348;SDS011;7258;50.376;8.742;2023-03-07T05:20:08;124.77;;;39.23;;
14348;SDS011;7258;50.376;8.742;2023-03-07T05:22:13;126.60;;;39.77;;
14348;SDS011;7258;50.376;8.742;2023-03-07T05:24:16;131.73;;;39.70;;
14348;SDS011;7258;50.376;8.742;2023-03-07T05:26:20;127.37;;;40.00;;
14348;SDS011;7258;50.376;8.742;2023-03-07T05:28:24;126.93;;;41.27;;
14348;SDS011;7258;50.376;8.742;2023-03-07T05:30:27;112.23;;;39.63;;
14348;SDS011;7258;50.376;8.742;2023-03-07T05:32:30;122.17;;;38.77;;
14348;SDS011;7258;50.376;8.742;2023-03-07T05:34:34;126.80;;;41.17;;
14348;SDS011;7258;50.376;8.742;2023-03-07T05:36:38;123.33;;;39.43;;
14348;SDS011;7258;50.376;8.742;2023-03-07T05:38:41;114.20;;;40.13;;
14348;SDS011;7258;50.376;8.742;2023-03-07T05:40:47;127.67;;;41.13;;
14348;SDS011;7258;50.376;8.742;2023-03-07T05:42:50;127.47;;;40.53;;
14348;SDS011;7258;50.376;8.742;2023-03-07T05:44:54;140.87;;;40.83;;
14348;SDS011;7258;50.376;8.742;2023-03-07T05:46:57;108.20;;;39.27;;
14348;SDS011;7258;50.376;8.742;2023-03-07T05:49:00;125.50;;;40.43;;
14348;SDS011;7258;50.376;8.742;2023-03-07T05:51:03;117.50;;;39.27;;
14348;SDS011;7258;50.376;8.742;2023-03-07T05:53:06;105.73;;;37.97;;
14348;SDS011;7258;50.376;8.742;2023-03-07T05:55:09;121.63;;;40.87;;
14348;SDS011;7258;50.376;8.742;2023-03-07T05:57:12;127.00;;;41.53;;
14348;SDS011;7258;50.376;8.742;2023-03-07T05:59:15;131.20;;;40.27;;
14348;SDS011;7258;50.376;8.742;2023-03-07T06:01:19;113.03;;;41.70;;
14348;SDS011;7258;50.376;8.742;2023-03-07T06:03:22;131.27;;;42.37;;
14348;SDS011;7258;50.376;8.742;2023-03-07T06:05:25;128.70;;;41.67;;
14348;SDS011;7258;50.376;8.742;2023-03-07T06:07:28;116.63;;;41.60;;
14348;SDS011;7258;50.376;8.742;2023-03-07T06:09:32;118.00;;;41.20;;
14348;SDS011;7258;50.376;8.742;2023-03-07T06:11:35;115.00;;;39.93;;
14348;SDS011;7258;50.376;8.742;2023-03-07T06:14:01;117.77;;;41.40;;
14348;SDS011;7258;50.376;8.742;2023-03-07T06:18:57;112.77;;;41.07;;
14348;SDS011;7258;50.376;8.742;2023-03-07T06:26:35;127.87;;;41.50;;
14348;SDS011;7258;50.376;8.742;2023-03-07T06:29:50;107.97;;;39.83;;
14348;SDS011;7258;50.376;8.742;2023-03-07T06:32:37;132.17;;;43.00;;
14348;SDS011;7258;50.376;8.742;2023-03-07T06:37:38;127.40;;;43.30;;
14348;SDS011;7258;50.376;8.742;2023-03-07T06:39:49;125.07;;;43.50;;
14348;SDS011;7258;50.376;8.742;2023-03-07T06:42:06;126.97;;;44.13;;
14348;SDS011;7258;50.376;8.742;2023-03-07T06:44:31;111.53;;;41.70;;
14348;SDS011;7258;50.376;8.742;2023-03-07T06:46:44;114.43;;;42.40;;
14348;SDS011;7258;50.376;8.742;2023-03-07T06:49:07;117.43;;;43.33;;
14348;SDS011;7258;50.376;8.742;2023-03-07T06:51:34;127.87;;;43.53;;
14348;SDS011;7258;50.376;8.742;2023-03-07T06:53:44;109.47;;;42.57;;
14348;SDS011;7258;50.376;8.742;2023-03-07T06:56:14;108.93;;;40.67;;
14348;SDS011;7258;50.376;8.742;2023-03-07T06:58:37;110.37;;;42.90;;
14348;SDS011;7258;50.376;8.742;2023-03-07T07:00:47;108.30;;;42.07;;
14348;SDS011;7258;50.376;8.742;2023-03-07T07:03:00;91.33;;;40.80;;
14348;SDS011;7258;50.376;8.742;2023-03-07T07:05:11;97.47;;;40.80;;
14348;SDS011;7258;50.376;8.742;2023-03-07T07:07:18;95.30;;;39.67;;
14348;SDS011;7258;50.376;8.742;2023-03-07T07:09:24;86.30;;;39.57;;
14348;SDS011;7258;50.376;8.742;2023-03-07T07:11:49;90.03;;;38.93;;
14348;SDS011;7258;50.376;8.742;2023-03-07T07:14:19;85.13;;;36.90;;
14348;SDS011;7258;50.376;8.742;2023-03-07T07:16:31;73.17;;;37.23;;
14348;SDS011;7258;50.376;8.742;2023-03-07T07:18:44;75.57;;;37.13;;
14348;SDS011;7258;50.376;8.742;2023-03-07T07:20:55;69.30;;;36.57;;
14348;SDS011;7258;50.376;8.742;2023-03-07T07:23:01;66.17;;;34.97;;
14348;SDS011;7258;50.376;8.742;2023-03-07T07:25:07;69.37;;;34.93;;
14348;SDS011;7258;50.376;8.742;2023-03-07T07:27:16;72.07;;;36.00;;
14348;SDS011;7258;50.376;8.742;2023-03-07T07:30:22;60.83;;;31.87;;
14348;SDS011;7258;50.376;8.742;2023-03-07T07:32:27;53.27;;;31.67;;
14348;SDS011;7258;50.376;8.742;2023-03-07T07:34:32;53.47;;;31.80;;
14348;SDS011;7258;50.376;8.742;2023-03-07T07:36:39;55.87;;;31.17;;
14348;SDS011;7258;50.376;8.742;2023-03-07T07:39:20;51.67;;;31.07;;
14348;SDS011;7258;50.376;8.742;2023-03-07T07:41:33;49.00;;;29.83;;
14348;SDS011;7258;50.376;8.742;2023-03-07T07:43:53;45.17;;;29.27;;
14348;SDS011;7258;50.376;8.742;2023-03-07T07:45:57;44.33;;;28.37;;
14348;SDS011;7258;50.376;8.742;2023-03-07T07:48:05;43.10;;;28.43;;
14348;SDS011;7258;50.376;8.742;2023-03-07T07:50:26;46.53;;;28.50;;
14348;SDS011;7258;50.376;8.742;2023-03-07T07:52:41;43.80;;;29.30;;
14348;SDS011;7258;50.376;8.742;2023-03-07T07:54:56;34.57;;;25.87;;
14348;SDS011;7258;50.376;8.742;2023-03-07T07:57:04;35.17;;;24.13;;
14348;SDS011;7258;50.376;8.742;2023-03-07T07:59:23;33.70;;;24.67;;
14348;SDS011;7258;50.376;8.742;2023-03-07T08:01:26;31.13;;;22.80;;
14348;SDS011;7258;50.376;8.742;2023-03-07T08:03:30;29.67;;;23.63;;
14348;SDS011;7258;50.376;8.742;2023-03-07T08:05:34;28.27;;;22.17;;
14348;SDS011;7258;50.376;8.742;2023-03-07T08:07:41;27.27;;;21.73;;
14348;SDS011;7258;50.376;8.742;2023-03-07T08:09:49;27.43;;;20.13;;
14348;SDS011;7258;50.376;8.742;2023-03-07T08:11:53;25.83;;;20.40;;
14348;SDS011;7258;50.376;8.742;2023-03-07T08:14:02;23.07;;;18.60;;
14348;SDS011;7258;50.376;8.742;2023-03-07T08:16:09;23.83;;;18.00;;
14348;SDS011;7258;50.376;8.742;2023-03-07T08:18:13;20.20;;;16.70;;
14348;SDS011;7258;50.376;8.742;2023-03-07T08:20:28;23.73;;;17.90;;
14348;SDS011;7258;50.376;8.742;2023-03-07T08:22:33;22.60;;;16.77;;
14348;SDS011;7258;50.376;8.742;2023-03-07T08:24:38;22.10;;;16.80;;
14348;SDS011;7258;50.376;8.742;2023-03-07T08:26:48;20.60;;;16.57;;
14348;SDS011;7258;50.376;8.742;2023-03-07T08:29:58;21.63;;;16.77;;
14348;SDS011;7258;50.376;8.742;2023-03-07T08:31:47;19.80;;;16.83;;
14348;SDS011;7258;50.376;8.742;2023-03-07T08:34:04;21.30;;;16.63;;
14348;SDS011;7258;50.376;8.742;2023-03-07T08:36:36;20.60;;;16.20;;
14348;SDS011;7258;50.376;8.742;2023-03-07T08:39:00;21.70;;;16.27;;
14348;SDS011;7258;50.376;8.742;2023-03-07T08:41:26;19.47;;;15.80;;
14348;SDS011;7258;50.376;8.742;2023-03-07T08:46:14;23.03;;;16.17;;
14348;SDS011;7258;50.376;8.742;2023-03-07T08:48:42;20.27;;;16.07;;
14348;SDS011;7258;50.376;8.742;2023-03-07T08:51:02;19.43;;;16.30;;
14348;SDS011;7258;50.376;8.742;2023-03-07T08:54:13;17.97;;;14.73;;
14348;SDS011;7258;50.376;8.742;2023-03-07T08:56:26;18.43;;;15.70;;
14348;SDS011;7258;50.376;8.742;2023-03-07T08:58:47;17.97;;;14.93;;
14348;SDS011;7258;50.376;8.742;2023-03-07T09:01:09;21.63;;;15.80;;
14348;SDS011;7258;50.376;8.742;2023-03-07T09:03:17;17.33;;;15.33;;
14348;SDS011;7258;50.376;8.742;2023-03-07T09:05:33;19.03;;;15.73;;
14348;SDS011;7258;50.376;8.742;2023-03-07T09:08:04;17.53;;;15.50;;
14348;SDS011;7258;50.376;8.742;2023-03-07T09:10:25;18.80;;;15.30;;
14348;SDS011;7258;50.376;8.742;2023-03-07T09:12:48;19.23;;;15.53;;
14348;SDS011;7258;50.376;8.742;2023-03-07T09:14:56;17.07;;;14.20;;
14348;SDS011;7258;50.376;8.742;2023-03-07T09:17:03;17.13;;;14.83;;
14348;SDS011;7258;50.376;8.742;2023-03-07T09:19:09;16.07;;;13.83;;
14348;SDS011;7258;50.376;8.742;2023-03-07T09:21:15;16.57;;;13.60;;
14348;SDS011;7258;50.376;8.742;2023-03-07T09:23:23;17.43;;;14.93;;
14348;SDS011;7258;50.376;8.742;2023-03-07T09:25:57;19.27;;;14.60;;
14348;SDS011;7258;50.376;8.742;2023-03-07T09:28:05;15.43;;;13.40;;
14348;SDS011;7258;50.376;8.742;2023-03-07T09:30:10;18.57;;;14.50;;
14348;SDS011;7258;50.376;8.742;2023-03-07T09:32:19;14.73;;;13.23;;
14348;SDS011;7258;50.376;8.742;2023-03-07T09:34:25;16.00;;;13.07;;
14348;SDS011;7258;50.376;8.742;2023-03-07T09:36:35;15.63;;;13.30;;
14348;SDS011;7258;50.376;8.742;2023-03-07T09:38:45;14.70;;;12.80;;
14348;SDS011;7258;50.376;8.742;2023-03-07T09:40:49;16.63;;;12.80;;
14348;SDS011;7258;50.376;8.742;2023-03-07T09:43:07;16.60;;;12.00;;
14348;SDS011;7258;50.376;8.742;2023-03-07T09:45:16;15.40;;;12.43;;
14348;SDS011;7258;50.376;8.742;2023-03-07T09:47:44;13.73;;;12.23;;
14348;SDS011;7258;50.376;8.742;2023-03-07T09:50:06;14.07;;;10.00;;
14348;SDS011;7258;50.376;8.742;2023-03-07T09:52:14;12.00;;;10.20;;
14348;SDS011;7258;50.376;8.742;2023-03-07T09:54:25;11.80;;;10.60;;
14348;SDS011;7258;50.376;8.742;2023-03-07T09:56:34;12.87;;;10.03;;
14348;SDS011;7258;50.376;8.742;2023-03-07T09:58:42;11.57;;;10.23;;
14348;SDS011;7258;50.376;8.742;2023-03-07T10:00:50;11.33;;;10.23;;
14348;SDS011;7258;50.376;8.742;2023-03-07T10:05:42;14.33;;;10.47;;
14348;SDS011;7258;50.376;8.742;2023-03-07T10:08:08;11.30;;;9.87;;
14348;SDS011;7258;50.376;8.742;2023-03-07T10:10:37;12.67;;;10.20;;
14348;SDS011;7258;50.376;8.742;2023-03-07T10:12:56;11.07;;;9.93;;
14348;SDS011;7258;50.376;8.742;2023-03-07T10:18:23;11.27;;;9.53;;
14348;SDS011;7258;50.376;8.742;2023-03-07T10:20:54;10.87;;;9.17;;
14348;SDS011;7258;50.376;8.742;2023-03-07T10:23:08;11.30;;;9.60;;
14348;SDS011;7258;50.376;8.742;2023-03-07T10:26:04;11.73;;;10.10;;
14348;SDS011;7258;50.376;8.742;2023-03-07T10:28:55;11.20;;;9.47;;
14348;SDS011;7258;50.376;8.742;2023-03-07T10:31:37;10.57;;;9.47;;
14348;SDS011;7258;50.376;8.742;2023-03-07T10:34:14;13.17;;;10.17;;
14348;SDS011;7258;50.376;8.742;2023-03-07T10:36:43;11.00;;;9.60;;
14348;SDS011;7258;50.376;8.742;2023-03-07T10:39:12;11.43;;;10.20;;
14348;SDS011;7258;50.376;8.742;2023-03-07T10:41:25;12.40;;;9.93;;
14348;SDS011;7258;50.376;8.742;2023-03-07T10:43:29;10.77;;;9.67;;
14348;SDS011;7258;50.376;8.742;2023-03-07T10:45:34;10.97;;;9.87;;
14348;SDS011;7258;50.376;8.742;2023-03-07T10:47:38;11.33;;;9.90;;
14348;SDS011;7258;50.376;8.742;2023-03-07T10:49:48;10.33;;;9.33;;
14348;SDS011;7258;50.376;8.742;2023-03-07T10:51:56;12.43;;;9.87;;
14348;SDS011;7258;50.376;8.742;2023-03-07T10:54:03;11.33;;;9.70;;
14348;SDS011;7258;50.376;8.742;2023-03-07T10:56:12;10.97;;;9.33;;
14348;SDS011;7258;50.376;8.742;2023-03-07T10:58:18;9.87;;;8.87;;
14348;SDS011;7258;50.376;8.742;2023-03-07T11:00:26;9.97;;;8.97;;
14348;SDS011;7258;50.376;8.742;2023-03-07T11:02:33;9.93;;;8.93;;
14348;SDS011;7258;50.376;8.742;2023-03-07T11:04:44;9.73;;;8.73;;
14348;SDS011;7258;50.376;8.742;2023-03-07T11:06:52;10.27;;;8.90;;
14348;SDS011;7258;50.376;8.742;2023-03-07T11:08:58;9.77;;;8.37;;
14348;SDS011;7258;50.376;8.742;2023-03-07T11:11:13;10.17;;;8.50;;
14348;SDS011;7258;50.376;8.742;2023-03-07T11:13:26;9.57;;;8.67;;
14348;SDS011;7258;50.376;8.742;2023-03-07T11:15:31;11.23;;;9.23;;
14348;SDS011;7258;50.376;8.742;2023-03-07T11:17:38;10.67;;;8.63;;
14348;SDS011;7258;50.376;8.742;2023-03-07T11:19:44;9.50;;;8.60;;
14348;SDS011;7258;50.376;8.742;2023-03-07T11:21:51;8.70;;;7.90;;
14348;SDS011;7258;50.376;8.742;2023-03-07T11:24:00;9.10;;;8.13;;
14348;SDS011;7258;50.376;8.742;2023-03-07T11:26:14;10.00;;;7.97;;
14348;SDS011;7258;50.376;8.742;2023-03-07T11:28:28;9.27;;;8.33;;
14348;SDS011;7258;50.376;8.742;2023-03-07T11:30:36;9.27;;;8.10;;
14348;SDS011;7258;50.376;8.742;2023-03-07T11:33:06;8.60;;;7.70;;
14348;SDS011;7258;50.376;8.742;2023-03-07T11:35:15;8.70;;;7.80;;
14348;SDS011;7258;50.376;8.742;2023-03-07T11:37:27;9.23;;;7.37;;
14348;SDS011;7258;50.376;8.742;2023-03-07T11:39:36;8.60;;;7.50;;
14348;SDS011;7258;50.376;8.742;2023-03-07T11:41:45;8.43;;;7.60;;
14348;SDS011;7258;50.376;8.742;2023-03-07T11:46:19;8.00;;;7.17;;
14348;SDS011;7258;50.376;8.742;2023-03-07T11:48:36;7.90;;;6.90;;
14348;SDS011;7258;50.376;8.742;2023-03-07T11:50:52;8.23;;;7.07;;
14348;SDS011;7258;50.376;8.742;2023-03-07T11:55:48;7.60;;;6.77;;
14348;SDS011;7258;50.376;8.742;2023-03-07T11:58:03;9.03;;;6.60;;
14348;SDS011;7258;50.376;8.742;2023-03-07T12:00:26;7.77;;;6.97;;
14348;SDS011;7258;50.376;8.742;2023-03-07T12:05:04;8.87;;;7.97;;
14348;SDS011;7258;50.376;8.742;2023-03-07T12:07:21;10.07;;;8.10;;
14348;SDS011;7258;50.376;8.742;2023-03-07T12:09:48;9.37;;;7.90;;
14348;SDS011;7258;50.376;8.742;2023-03-07T12:12:03;8.90;;;8.03;;
14348;SDS011;7258;50.376;8.742;2023-03-07T12:14:25;8.23;;;7.07;;
14348;SDS011;7258;50.376;8.742;2023-03-07T12:16:43;9.43;;;7.30;;
14348;SDS011;7258;50.376;8.742;2023-03-07T12:18:59;10.40;;;8.10;;
14348;SDS011;7258;50.376;8.742;2023-03-07T12:21:17;8.07;;;7.27;;
14348;SDS011;7258;50.376;8.742;2023-03-07T12:23:32;9.47;;;6.23;;
14348;SDS011;7258;50.376;8.742;2023-03-07T12:25:44;8.60;;;6.33;;
14348;SDS011;7258;50.376;8.742;2023-03-07T12:27:56;7.17;;;6.40;;
14348;SDS011;7258;50.376;8.742;2023-03-07T12:30:12;7.90;;;5.90;;
14348;SDS011;7258;50.376;8.742;2023-03-07T12:32:23;6.30;;;5.70;;
14348;SDS011;7258;50.376;8.742;2023-03-07T12:34:29;6.60;;;5.70;;
14348;SDS011;7258;50.376;8.742;2023-03-07T12:36:49;5.90;;;5.30;;
14348;SDS011;7258;50.376;8.742;2023-03-07T12:38:56;7.30;;;5.73;;
14348;SDS011;7258;50.376;8.742;2023-03-07T12:41:10;6.57;;;5.77;;
14348;SDS011;7258;50.376;8.742;2023-03-07T12:43:26;8.13;;;5.90;;
14348;SDS011;7258;50.376;8.742;2023-03-07T12:45:35;6.73;;;6.03;;
14348;SDS011;7258;50.376;8.742;2023-03-07T12:47:47;6.90;;;6.17;;
14348;SDS011;7258;50.376;8.742;2023-03-07T12:49:58;8.00;;;6.77;;
14348;SDS011;7258;50.376;8.742;2023-03-07T12:52:08;9.43;;;6.70;;
14348;SDS011;7258;50.376;8.742;2023-03-07T12:54:23;7.60;;;6.03;;
14348;SDS011;7258;50.376;8.742;2023-03-07T12:56:31;8.23;;;6.87;;
14348;SDS011;7258;50.376;8.742;2023-03-07T12:58:45;9.10;;;6.27;;
14348;SDS011;7258;50.376;8.742;2023-03-07T13:00:55;7.70;;;6.87;;
14348;SDS011;7258;50.376;8.742;2023-03-07T13:03:04;6.63;;;5.77;;
14348;SDS011;7258;50.376;8.742;2023-03-07T13:05:14;8.10;;;6.40;;
14348;SDS011;7258;50.376;8.742;2023-03-07T13:07:22;6.97;;;6.17;;
14348;SDS011;7258;50.376;8.742;2023-03-07T13:09:27;7.93;;;6.30;;
14348;SDS011;7258;50.376;8.742;2023-03-07T13:11:33;5.90;;;5.30;;
14348;SDS011;7258;50.376;8.742;2023-03-07T13:13:50;7.63;;;6.00;;
14348;SDS011;7258;50.376;8.742;2023-03-07T13:16:02;7.33;;;5.70;;
14348;SDS011;7258;50.376;8.742;2023-03-07T13:18:25;6.60;;;5.73;;